createdAt,value
2018-04-22T00:00:26.185Z,1015.05
2018-04-22T00:01:26.171Z,1015.03
2018-04-22T00:02:26.154Z,1015.00
2018-04-22T00:03:26.138Z,1014.98
2018-04-22T00:04:26.120Z,1014.95
2018-04-22T00:05:26.108Z,1014.94
2018-04-22T00:06:26.093Z,1014.90
2018-04-22T00:07:26.084Z,1014.92
2018-04-22T00:08:26.067Z,1014.89
2018-04-22T00:09:26.045Z,1014.90
2018-04-22T00:10:26.034Z,1014.88
2018-04-22T00:11:26.016Z,1014.88
2018-04-22T00:12:26.000Z,1014.91
2018-04-22T00:13:25.984Z,1014.90
2018-04-22T00:14:25.975Z,1014.87
2018-04-22T00:15:25.953Z,1014.86
2018-04-22T00:16:25.938Z,1014.86
2018-04-22T00:17:25.921Z,1014.87
2018-04-22T00:18:25.907Z,1014.90
2018-04-22T00:19:25.891Z,1014.84
2018-04-22T00:20:25.875Z,1014.87
2018-04-22T00:21:25.865Z,1014.82
2018-04-22T00:22:25.845Z,1014.79
2018-04-22T00:23:25.833Z,1014.80
2018-04-22T00:24:25.815Z,1014.80
2018-04-22T00:25:25.796Z,1014.76
2018-04-22T00:26:25.784Z,1014.81
2018-04-22T00:27:25.767Z,1014.84
2018-04-22T00:28:25.751Z,1014.82
2018-04-22T00:29:25.736Z,1014.86
2018-04-22T00:30:25.719Z,1014.82
2018-04-22T00:31:25.705Z,1014.83
2018-04-22T00:32:25.691Z,1014.80
2018-04-22T00:33:25.675Z,1014.81
2018-04-22T00:34:25.662Z,1014.80
2018-04-22T00:35:25.644Z,1014.80
2018-04-22T00:36:25.625Z,1014.80
2018-04-22T00:37:25.610Z,1014.78
2018-04-22T00:38:25.597Z,1014.79
2018-04-22T00:39:25.580Z,1014.76
2018-04-22T00:40:25.563Z,1014.75
2018-04-22T00:41:25.548Z,1014.76
2018-04-22T00:42:25.537Z,1014.75
2018-04-22T00:43:25.517Z,1014.71
2018-04-22T00:44:25.512Z,1014.77
2018-04-22T00:45:25.485Z,1014.79
2018-04-22T00:46:25.520Z,1014.78
2018-04-22T00:47:25.453Z,1014.76
2018-04-22T00:48:25.435Z,1014.76
2018-04-22T00:49:25.494Z,1014.77
2018-04-22T00:50:25.406Z,1014.74
2018-04-22T00:51:25.389Z,1014.74
2018-04-22T00:52:25.372Z,1014.73
2018-04-22T00:53:25.364Z,1014.74
2018-04-22T00:54:25.373Z,1014.72
2018-04-22T00:55:25.326Z,1014.71
2018-04-22T00:56:25.309Z,1014.70
2018-04-22T00:57:25.303Z,1014.70
2018-04-22T00:58:25.281Z,1014.70
2018-04-22T00:59:25.264Z,1014.69
2018-04-22T01:00:25.249Z,1014.70
2018-04-22T01:01:25.231Z,1014.71
2018-04-22T01:02:25.214Z,1014.70
2018-04-22T01:03:25.201Z,1014.76
2018-04-22T01:04:25.182Z,1014.75
2018-04-22T01:05:25.165Z,1014.76
2018-04-22T01:06:25.155Z,1014.74
2018-04-22T01:07:25.135Z,1014.74
2018-04-22T01:08:25.118Z,1014.75
2018-04-22T01:09:25.103Z,1014.75
2018-04-22T01:10:25.085Z,1014.74
2018-04-22T01:11:25.072Z,1014.76
2018-04-22T01:12:25.055Z,1014.72
2018-04-22T01:13:25.049Z,1014.72
2018-04-22T01:14:25.022Z,1014.71
2018-04-22T01:15:25.011Z,1014.72
2018-04-22T01:16:25.044Z,1014.74
2018-04-22T01:17:24.974Z,1014.72
2018-04-22T01:18:24.959Z,1014.70
2018-04-22T01:19:24.943Z,1014.69
2018-04-22T01:20:24.923Z,1014.69
2018-04-22T01:21:24.909Z,1014.71
2018-04-22T01:22:24.894Z,1014.74
2018-04-22T01:23:24.881Z,1014.72
2018-04-22T01:24:24.863Z,1014.73
2018-04-22T01:25:24.848Z,1014.75
2018-04-22T01:26:24.829Z,1014.72
2018-04-22T01:27:24.816Z,1014.69
2018-04-22T01:28:24.803Z,1014.74
2018-04-22T01:29:24.782Z,1014.72
2018-04-22T01:30:24.766Z,1014.70
2018-04-22T01:31:24.752Z,1014.71
2018-04-22T01:32:24.734Z,1014.69
2018-04-22T01:33:24.720Z,1014.69
2018-04-22T01:34:24.703Z,1014.70
2018-04-22T01:35:24.690Z,1014.67
2018-04-22T01:36:24.670Z,1014.70
2018-04-22T01:37:24.657Z,1014.68
2018-04-22T01:38:24.638Z,1014.69
2018-04-22T01:39:24.622Z,1014.67
2018-04-22T01:40:24.605Z,1014.69
2018-04-22T01:41:24.588Z,1014.69
2018-04-22T01:42:24.573Z,1014.70
2018-04-22T01:43:24.557Z,1014.74
2018-04-22T01:44:24.540Z,1014.74
2018-04-22T01:45:24.524Z,1014.72
2018-04-22T01:46:24.507Z,1014.72
2018-04-22T01:47:24.490Z,1014.67
2018-04-22T01:48:24.473Z,1014.66
2018-04-22T01:49:24.458Z,1014.69
2018-04-22T01:50:24.443Z,1014.67
2018-04-22T01:51:24.425Z,1014.71
2018-04-22T01:52:24.407Z,1014.66
2018-04-22T01:53:24.395Z,1014.65
2018-04-22T01:54:24.375Z,1014.62
2018-04-22T01:55:24.359Z,1014.62
2018-04-22T01:56:24.341Z,1014.63
2018-04-22T01:57:24.330Z,1014.63
2018-04-22T01:58:24.310Z,1014.63
2018-04-22T01:59:24.294Z,1014.65
2018-04-22T02:00:24.274Z,1014.62
2018-04-22T02:01:24.258Z,1014.66
2018-04-22T02:02:24.242Z,1014.61
2018-04-22T02:03:24.229Z,1014.61
2018-04-22T02:04:24.207Z,1014.56
2018-04-22T02:05:24.190Z,1014.58
2018-04-22T02:06:24.181Z,1014.60
2018-04-22T02:07:24.158Z,1014.56
2018-04-22T02:08:24.142Z,1014.56
2018-04-22T02:09:24.125Z,1014.57
2018-04-22T02:10:24.106Z,1014.57
2018-04-22T02:11:24.091Z,1014.54
2018-04-22T02:12:24.073Z,1014.52
2018-04-22T02:13:24.062Z,1014.54
2018-04-22T02:14:24.045Z,1014.53
2018-04-22T02:15:24.025Z,1014.51
2018-04-22T02:16:24.007Z,1014.48
2018-04-22T02:17:23.989Z,1014.52
2018-04-22T02:18:23.973Z,1014.52
2018-04-22T02:19:23.957Z,1014.51
2018-04-22T02:20:23.938Z,1014.52
2018-04-22T02:21:23.925Z,1014.51
2018-04-22T02:22:23.906Z,1014.50
2018-04-22T02:23:23.897Z,1014.48
2018-04-22T02:24:23.872Z,1014.46
2018-04-22T02:25:23.857Z,1014.44
2018-04-22T02:26:23.848Z,1014.44
2018-04-22T02:27:23.823Z,1014.44
2018-04-22T02:28:23.804Z,1014.44
2018-04-22T02:29:23.788Z,1014.42
2018-04-22T02:30:23.776Z,1014.35
2018-04-22T02:31:23.755Z,1014.39
2018-04-22T02:32:23.741Z,1014.39
2018-04-22T02:33:23.720Z,1014.35
2018-04-22T02:34:23.704Z,1014.38
2018-04-22T02:35:23.700Z,1014.34
2018-04-22T02:36:23.679Z,1014.34
2018-04-22T02:37:23.654Z,1014.32
2018-04-22T02:38:23.645Z,1014.31
2018-04-22T02:39:23.630Z,1014.29
2018-04-22T02:40:23.602Z,1014.32
2018-04-22T02:41:23.590Z,1014.28
2018-04-22T02:42:23.567Z,1014.30
2018-04-22T02:43:23.552Z,1014.30
2018-04-22T02:44:23.534Z,1014.33
2018-04-22T02:45:23.520Z,1014.32
2018-04-22T02:46:23.500Z,1014.33
2018-04-22T02:47:23.484Z,1014.35
2018-04-22T02:48:23.466Z,1014.27
2018-04-22T02:49:23.449Z,1014.27
2018-04-22T02:50:23.431Z,1014.31
2018-04-22T02:51:23.419Z,1014.27
2018-04-22T02:52:23.402Z,1014.27
2018-04-22T02:53:23.387Z,1014.27
2018-04-22T02:54:23.365Z,1014.24
2018-04-22T02:55:23.352Z,1014.19
2018-04-22T02:56:23.331Z,1014.21
2018-04-22T02:57:23.314Z,1014.17
2018-04-22T02:58:23.302Z,1014.18
2018-04-22T02:59:23.282Z,1014.19
2018-04-22T03:00:23.265Z,1014.14
2018-04-22T03:01:23.247Z,1014.18
2018-04-22T03:02:23.235Z,1014.14
2018-04-22T03:03:23.214Z,1014.04
2018-04-22T03:04:23.195Z,1014.11
2018-04-22T03:05:23.176Z,1014.09
2018-04-22T03:06:23.163Z,1014.09
2018-04-22T03:07:23.152Z,1014.07
2018-04-22T03:08:23.127Z,1014.07
2018-04-22T03:09:23.117Z,1014.07
2018-04-22T03:10:23.094Z,1014.08
2018-04-22T03:11:23.077Z,1014.09
2018-04-22T03:12:23.059Z,1014.06
2018-04-22T03:13:23.043Z,1014.06
2018-04-22T03:14:23.025Z,1014.02
2018-04-22T03:15:23.008Z,1014.04
2018-04-22T03:16:22.992Z,1014.03
2018-04-22T03:17:22.974Z,1014.02
2018-04-22T03:18:22.957Z,1014.04
2018-04-22T03:19:22.945Z,1014.01
2018-04-22T03:20:22.923Z,1014.03
2018-04-22T03:21:22.907Z,1014.05
2018-04-22T03:22:22.889Z,1014.06
2018-04-22T03:23:22.872Z,1014.08
2018-04-22T03:24:22.856Z,1014.04
2018-04-22T03:25:22.838Z,1014.10
2018-04-22T03:26:22.822Z,1014.08
2018-04-22T03:27:22.803Z,1014.03
2018-04-22T03:28:22.784Z,1014.05
2018-04-22T03:29:22.783Z,1014.08
2018-04-22T03:30:22.752Z,1014.04
2018-04-22T03:31:22.735Z,1014.07
2018-04-22T03:32:22.717Z,1014.03
2018-04-22T03:33:22.702Z,1014.03
2018-04-22T03:34:22.684Z,1014.02
2018-04-22T03:35:22.671Z,1013.99
2018-04-22T03:36:22.646Z,1013.99
2018-04-22T03:37:22.632Z,1013.98
2018-04-22T03:38:22.613Z,1014.01
2018-04-22T03:39:22.599Z,1014.07
2018-04-22T03:40:22.581Z,1014.02
2018-04-22T03:41:22.564Z,1014.01
2018-04-22T03:42:22.547Z,1013.97
2018-04-22T03:43:22.533Z,1013.94
2018-04-22T03:44:22.512Z,1013.96
2018-04-22T03:45:22.496Z,1013.95
2018-04-22T03:46:22.478Z,1013.99
2018-04-22T03:47:22.461Z,1013.94
2018-04-22T03:48:22.445Z,1013.96
2018-04-22T03:49:22.430Z,1013.97
2018-04-22T03:50:22.410Z,1013.97
2018-04-22T03:51:22.392Z,1013.99
2018-04-22T03:52:22.375Z,1013.98
2018-04-22T03:53:22.357Z,1013.95
2018-04-22T03:54:22.346Z,1013.99
2018-04-22T03:55:22.323Z,1013.96
2018-04-22T03:56:22.305Z,1013.97
2018-04-22T03:57:22.288Z,1013.95
2018-04-22T03:58:22.270Z,1013.91
2018-04-22T03:59:22.254Z,1013.91
2018-04-22T04:00:22.238Z,1013.92
2018-04-22T04:01:22.224Z,1013.95
2018-04-22T04:02:22.203Z,1013.96
2018-04-22T04:03:22.188Z,1013.97
2018-04-22T04:04:22.171Z,1013.97
2018-04-22T04:05:22.149Z,1013.95
2018-04-22T04:06:22.134Z,1013.98
2018-04-22T04:07:22.120Z,1014.00
2018-04-22T04:08:22.106Z,1014.04
2018-04-22T04:09:22.080Z,1014.01
2018-04-22T04:10:22.063Z,1014.02
2018-04-22T04:11:22.046Z,1014.09
2018-04-22T04:12:22.030Z,1014.04
2018-04-22T04:13:22.010Z,1013.98
2018-04-22T04:14:21.994Z,1014.01
2018-04-22T04:15:21.977Z,1014.00
2018-04-22T04:16:21.959Z,1013.99
2018-04-22T04:17:21.941Z,1014.01
2018-04-22T04:18:21.926Z,1014.04
2018-04-22T04:19:21.920Z,1014.00
2018-04-22T04:20:21.889Z,1013.99
2018-04-22T04:21:21.872Z,1014.00
2018-04-22T04:22:21.856Z,1014.00
2018-04-22T04:23:21.838Z,1013.99
2018-04-22T04:24:21.820Z,1014.00
2018-04-22T04:25:21.803Z,1013.95
2018-04-22T04:26:21.785Z,1014.00
2018-04-22T04:27:21.768Z,1013.98
2018-04-22T04:28:21.750Z,1014.01
2018-04-22T04:29:21.733Z,1014.06
2018-04-22T04:30:21.716Z,1014.06
2018-04-22T04:31:21.697Z,1014.04
2018-04-22T04:32:21.679Z,1014.03
2018-04-22T04:33:21.663Z,1014.03
2018-04-22T04:34:21.645Z,1014.01
2018-04-22T04:35:21.635Z,1014.07
2018-04-22T04:36:21.608Z,1014.00
2018-04-22T04:37:21.591Z,1013.95
2018-04-22T04:38:21.577Z,1014.00
2018-04-22T04:39:21.559Z,1013.97
2018-04-22T04:40:21.539Z,1013.99
2018-04-22T04:41:21.527Z,1013.97
2018-04-22T04:42:21.507Z,1013.99
2018-04-22T04:43:21.487Z,1014.00
2018-04-22T04:44:21.468Z,1013.97
2018-04-22T04:45:21.502Z,1013.98
2018-04-22T04:46:21.435Z,1013.97
2018-04-22T04:47:21.419Z,1014.00
2018-04-22T04:48:21.402Z,1014.01
2018-04-22T04:49:21.386Z,1013.98
2018-04-22T04:50:21.377Z,1014.03
2018-04-22T04:51:21.349Z,1014.01
2018-04-22T04:52:21.330Z,1013.97
2018-04-22T04:53:21.318Z,1014.01
2018-04-22T04:54:21.352Z,1014.01
2018-04-22T04:55:21.284Z,1014.00
2018-04-22T04:56:21.260Z,1013.97
2018-04-22T04:57:21.244Z,1014.03
2018-04-22T04:58:21.230Z,1014.00
2018-04-22T04:59:21.212Z,1014.02
2018-04-22T05:00:21.230Z,1014.02
2018-04-22T05:01:21.177Z,1014.03
2018-04-22T05:02:21.159Z,1013.98
2018-04-22T05:03:21.143Z,1013.99
2018-04-22T05:04:21.124Z,1013.97
2018-04-22T05:05:21.106Z,1013.96
2018-04-22T05:06:21.092Z,1013.98
2018-04-22T05:07:21.074Z,1013.95
2018-04-22T05:08:21.055Z,1013.97
2018-04-22T05:09:21.038Z,1013.95
2018-04-22T05:10:21.024Z,1013.93
2018-04-22T05:11:21.006Z,1013.92
2018-04-22T05:12:20.989Z,1013.95
2018-04-22T05:13:20.969Z,1013.96
2018-04-22T05:14:20.954Z,1013.97
2018-04-22T05:15:20.936Z,1013.96
2018-04-22T05:16:20.918Z,1013.96
2018-04-22T05:17:20.905Z,1013.94
2018-04-22T05:18:20.893Z,1013.93
2018-04-22T05:19:20.872Z,1013.92
2018-04-22T05:20:20.849Z,1013.97
2018-04-22T05:21:20.833Z,1013.95
2018-04-22T05:22:20.820Z,1013.93
2018-04-22T05:23:20.804Z,1013.95
2018-04-22T05:24:20.788Z,1013.96
2018-04-22T05:25:20.764Z,1013.94
2018-04-22T05:26:20.752Z,1013.95
2018-04-22T05:27:20.731Z,1013.91
2018-04-22T05:28:20.718Z,1013.93
2018-04-22T05:29:20.699Z,1013.94
2018-04-22T05:30:20.683Z,1013.95
2018-04-22T05:31:20.665Z,1013.91
2018-04-22T05:32:20.648Z,1013.91
2018-04-22T05:33:20.632Z,1013.93
2018-04-22T05:34:20.614Z,1013.88
2018-04-22T05:35:20.598Z,1013.88
2018-04-22T05:36:20.579Z,1013.89
2018-04-22T05:37:20.563Z,1013.90
2018-04-22T05:38:20.549Z,1013.87
2018-04-22T05:39:20.528Z,1013.87
2018-04-22T05:40:20.514Z,1013.86
2018-04-22T05:41:20.500Z,1013.86
2018-04-22T05:42:20.479Z,1013.86
2018-04-22T05:43:20.466Z,1013.85
2018-04-22T05:44:20.445Z,1013.89
2018-04-22T05:45:20.430Z,1013.86
2018-04-22T05:46:20.412Z,1013.84
2018-04-22T05:47:20.398Z,1013.82
2018-04-22T05:48:20.378Z,1013.81
2018-04-22T05:49:20.362Z,1013.81
2018-04-22T05:50:20.349Z,1013.78
2018-04-22T05:51:20.333Z,1013.79
2018-04-22T05:52:20.312Z,1013.79
2018-04-22T05:53:20.299Z,1013.76
2018-04-22T05:54:20.279Z,1013.74
2018-04-22T05:55:20.265Z,1013.74
2018-04-22T05:56:20.248Z,1013.73
2018-04-22T05:57:20.232Z,1013.75
2018-04-22T05:58:20.216Z,1013.74
2018-04-22T05:59:20.204Z,1013.77
2018-04-22T06:00:20.181Z,1013.76
2018-04-22T06:01:20.168Z,1013.75
2018-04-22T06:02:20.152Z,1013.81
2018-04-22T06:03:20.132Z,1013.78
2018-04-22T06:04:20.118Z,1013.78
2018-04-22T06:05:20.103Z,1013.77
2018-04-22T06:06:20.087Z,1013.80
2018-04-22T06:07:20.071Z,1013.73
2018-04-22T06:08:20.052Z,1013.74
2018-04-22T06:09:20.038Z,1013.75
2018-04-22T06:10:20.020Z,1013.75
2018-04-22T06:11:20.010Z,1013.77
2018-04-22T06:12:19.988Z,1013.78
2018-04-22T06:13:19.979Z,1013.74
2018-04-22T06:14:19.957Z,1013.74
2018-04-22T06:15:19.941Z,1013.80
2018-04-22T06:16:19.926Z,1013.77
2018-04-22T06:17:19.911Z,1013.75
2018-04-22T06:18:19.893Z,1013.73
2018-04-22T06:19:19.877Z,1013.75
2018-04-22T06:20:19.861Z,1013.74
2018-04-22T06:21:19.845Z,1013.75
2018-04-22T06:22:19.829Z,1013.73
2018-04-22T06:23:19.815Z,1013.69
2018-04-22T06:24:19.795Z,1013.67
2018-04-22T06:25:19.786Z,1013.65
2018-04-22T06:26:19.765Z,1013.64
2018-04-22T06:27:19.750Z,1013.63
2018-04-22T06:28:19.796Z,1013.65
2018-04-22T06:29:19.721Z,1013.68
2018-04-22T06:30:19.711Z,1013.65
2018-04-22T06:31:19.690Z,1013.67
2018-04-22T06:32:19.676Z,1013.65
2018-04-22T06:33:19.661Z,1013.67
2018-04-22T06:34:19.656Z,1013.67
2018-04-22T06:35:19.625Z,1013.64
2018-04-22T06:36:19.614Z,1013.60
2018-04-22T06:37:19.596Z,1013.63
2018-04-22T06:38:19.583Z,1013.59
2018-04-22T06:39:19.578Z,1013.56
2018-04-22T06:40:19.553Z,1013.60
2018-04-22T06:41:19.534Z,1013.58
2018-04-22T06:42:19.536Z,1013.59
2018-04-22T06:43:19.505Z,1013.55
2018-04-22T06:44:19.490Z,1013.54
2018-04-22T06:45:19.480Z,1013.51
2018-04-22T06:46:19.459Z,1013.53
2018-04-22T06:47:19.446Z,1013.54
2018-04-22T06:48:19.430Z,1013.48
2018-04-22T06:49:19.417Z,1013.51
2018-04-22T06:50:19.401Z,1013.53
2018-04-22T06:51:19.445Z,1013.57
2018-04-22T06:52:19.383Z,1013.55
2018-04-22T06:53:19.361Z,1013.54
2018-04-22T06:54:19.391Z,1013.60
2018-04-22T06:55:19.327Z,1013.82
2018-04-22T06:56:19.312Z,1014.08
2018-04-22T06:57:19.298Z,1014.25
2018-04-22T06:58:19.293Z,1014.30
2018-04-22T06:59:19.269Z,1014.30
2018-04-22T07:00:19.255Z,1014.28
2018-04-22T07:01:19.242Z,1014.30
2018-04-22T07:02:19.227Z,1014.32
2018-04-22T07:03:19.214Z,1014.32
2018-04-22T07:04:19.200Z,1014.15
2018-04-22T07:05:19.187Z,1013.92
2018-04-22T07:06:19.176Z,1014.19
2018-04-22T07:07:19.161Z,1014.31
2018-04-22T07:08:19.153Z,1014.40
2018-04-22T07:09:19.137Z,1014.40
2018-04-22T07:10:19.126Z,1014.40
2018-04-22T07:11:19.115Z,1014.30
2018-04-22T07:12:19.102Z,1014.15
2018-04-22T07:13:19.096Z,1014.20
2018-04-22T07:14:19.087Z,1014.37
2018-04-22T07:15:19.071Z,1014.36
2018-04-22T07:16:19.064Z,1014.35
2018-04-22T07:17:19.055Z,1014.37
2018-04-22T07:18:19.045Z,1014.37
2018-04-22T07:19:19.036Z,1014.34
2018-04-22T07:20:19.027Z,1014.34
2018-04-22T07:21:19.022Z,1014.36
2018-04-22T07:22:19.011Z,1014.32
2018-04-22T07:23:19.005Z,1014.38
2018-04-22T07:24:19.000Z,1014.35
2018-04-22T07:25:18.990Z,1014.39
2018-04-22T07:26:18.984Z,1014.35
2018-04-22T07:27:18.979Z,1014.03
2018-04-22T07:28:18.973Z,1013.98
2018-04-22T07:29:18.985Z,1014.00
2018-04-22T07:30:18.963Z,1013.84
2018-04-22T07:31:18.956Z,1013.79
2018-04-22T07:32:18.957Z,1013.84
2018-04-22T07:33:18.948Z,1013.92
2018-04-22T07:34:18.941Z,1014.03
2018-04-22T07:35:18.942Z,1013.92
2018-04-22T07:36:18.934Z,1013.89
2018-04-22T07:37:18.929Z,1013.88
2018-04-22T07:38:18.926Z,1014.00
2018-04-22T07:39:18.920Z,1014.28
2018-04-22T07:40:18.916Z,1014.40
2018-04-22T07:41:18.917Z,1014.39
2018-04-22T07:42:18.937Z,1014.37
2018-04-22T07:43:18.904Z,1014.35
2018-04-22T07:44:18.899Z,1014.30
2018-04-22T07:45:18.896Z,1014.28
2018-04-22T07:46:18.898Z,1014.34
2018-04-22T07:47:18.891Z,1014.40
2018-04-22T07:48:18.887Z,1014.42
2018-04-22T07:49:18.897Z,1014.43
2018-04-22T07:50:18.882Z,1014.45
2018-04-22T07:51:18.886Z,1014.50
2018-04-22T07:52:18.877Z,1014.49
2018-04-22T07:53:18.877Z,1014.40
2018-04-22T07:54:18.872Z,1014.46
2018-04-22T07:55:18.872Z,1014.45
2018-04-22T07:56:18.876Z,1014.38
2018-04-22T07:57:18.867Z,1014.43
2018-04-22T07:58:18.872Z,1014.45
2018-04-22T07:59:18.868Z,1014.41
2018-04-22T08:00:18.868Z,1014.46
2018-04-22T08:01:18.871Z,1014.45
2018-04-22T08:02:18.867Z,1014.40
2018-04-22T08:03:18.865Z,1014.40
2018-04-22T08:04:18.873Z,1014.47
2018-04-22T08:05:18.863Z,1014.38
2018-04-22T08:06:18.863Z,1013.73
2018-04-22T08:07:18.873Z,1013.74
2018-04-22T08:08:18.860Z,1013.76
2018-04-22T08:09:18.861Z,1013.72
2018-04-22T08:10:18.874Z,1013.70
2018-04-22T08:11:18.860Z,1013.73
2018-04-22T08:12:18.872Z,1013.74
2018-04-22T08:13:18.861Z,1013.71
2018-04-22T08:14:18.860Z,1013.68
2018-04-22T08:15:18.860Z,1013.68
2018-04-22T08:16:18.913Z,1013.65
2018-04-22T08:17:18.856Z,1013.64
2018-04-22T08:18:18.860Z,1013.65
2018-04-22T08:19:18.855Z,1013.64
2018-04-22T08:20:18.853Z,1013.66
2018-04-22T08:21:18.852Z,1013.64
2018-04-22T08:22:18.854Z,1013.57
2018-04-22T08:23:18.849Z,1013.59
2018-04-22T08:24:18.858Z,1013.57
2018-04-22T08:25:18.848Z,1013.53
2018-04-22T08:26:18.843Z,1013.55
2018-04-22T08:27:18.842Z,1013.56
2018-04-22T08:28:18.874Z,1013.57
2018-04-22T08:29:18.836Z,1013.56
2018-04-22T08:30:18.833Z,1013.55
2018-04-22T08:31:18.830Z,1013.55
2018-04-22T08:32:18.828Z,1013.53
2018-04-22T08:33:18.838Z,1013.52
2018-04-22T08:34:18.821Z,1013.47
2018-04-22T08:35:18.817Z,1013.54
2018-04-22T08:36:18.815Z,1013.46
2018-04-22T08:37:18.808Z,1013.45
2018-04-22T08:38:18.817Z,1013.42
2018-04-22T08:39:18.803Z,1013.38
2018-04-22T08:40:18.799Z,1013.44
2018-04-22T08:41:18.792Z,1013.42
2018-04-22T08:42:18.793Z,1013.41
2018-04-22T08:43:18.784Z,1013.37
2018-04-22T08:44:18.777Z,1013.36
2018-04-22T08:45:18.771Z,1013.33
2018-04-22T08:46:18.767Z,1013.32
2018-04-22T08:47:18.765Z,1013.30
2018-04-22T08:48:18.758Z,1013.31
2018-04-22T08:49:18.759Z,1013.33
2018-04-22T08:50:18.753Z,1013.35
2018-04-22T08:51:18.742Z,1013.31
2018-04-22T08:52:18.740Z,1013.32
2018-04-22T08:53:18.734Z,1013.27
2018-04-22T08:54:18.725Z,1013.28
2018-04-22T08:55:18.728Z,1013.25
2018-04-22T08:56:18.714Z,1013.30
2018-04-22T08:57:18.708Z,1013.27
2018-04-22T08:58:18.702Z,1013.30
2018-04-22T08:59:18.696Z,1013.27
2018-04-22T09:00:18.690Z,1013.29
2018-04-22T09:01:18.688Z,1013.26
2018-04-22T09:02:18.681Z,1013.19
2018-04-22T09:03:18.672Z,1013.20
2018-04-22T09:04:18.664Z,1013.20
2018-04-22T09:05:18.659Z,1013.18
2018-04-22T09:06:18.652Z,1013.16
2018-04-22T09:07:18.645Z,1013.11
2018-04-22T09:08:18.641Z,1013.14
2018-04-22T09:09:18.633Z,1013.15
2018-04-22T09:10:18.627Z,1013.16
2018-04-22T09:11:18.624Z,1013.12
2018-04-22T09:12:18.614Z,1013.11
2018-04-22T09:13:18.608Z,1013.09
2018-04-22T09:14:18.602Z,1013.11
2018-04-22T09:15:18.600Z,1013.11
2018-04-22T09:16:18.586Z,1013.07
2018-04-22T09:17:18.582Z,1013.09
2018-04-22T09:18:18.574Z,1013.06
2018-04-22T09:19:18.568Z,1013.01
2018-04-22T09:20:18.559Z,1013.00
2018-04-22T09:21:18.555Z,1012.96
2018-04-22T09:22:18.548Z,1012.93
2018-04-22T09:23:18.541Z,1012.97
2018-04-22T09:24:18.536Z,1012.97
2018-04-22T09:25:18.530Z,1012.93
2018-04-22T09:26:18.520Z,1012.93
2018-04-22T09:27:18.511Z,1012.87
2018-04-22T09:28:18.503Z,1012.89
2018-04-22T09:29:18.499Z,1012.85
2018-04-22T09:30:18.491Z,1012.80
2018-04-22T09:31:18.483Z,1012.78
2018-04-22T09:32:18.476Z,1012.71
2018-04-22T09:33:18.469Z,1012.73
2018-04-22T09:34:18.465Z,1012.72
2018-04-22T09:35:18.454Z,1012.66
2018-04-22T09:36:18.447Z,1012.63
2018-04-22T09:37:18.442Z,1012.61
2018-04-22T09:38:18.444Z,1012.57
2018-04-22T09:39:18.432Z,1012.57
2018-04-22T09:40:18.420Z,1012.55
2018-04-22T09:41:18.411Z,1012.53
2018-04-22T09:42:18.408Z,1012.58
2018-04-22T09:43:18.404Z,1012.53
2018-04-22T09:44:18.391Z,1012.53
2018-04-22T09:45:18.388Z,1012.61
2018-04-22T09:46:18.378Z,1012.55
2018-04-22T09:47:18.372Z,1012.50
2018-04-22T09:48:18.363Z,1012.56
2018-04-22T09:49:18.354Z,1012.54
2018-04-22T09:50:18.353Z,1012.61
2018-04-22T09:51:18.343Z,1012.54
2018-04-22T09:52:18.385Z,1012.52
2018-04-22T09:53:18.349Z,1012.47
2018-04-22T09:54:18.321Z,1012.47
2018-04-22T09:55:18.370Z,1012.43
2018-04-22T09:56:18.308Z,1012.38
2018-04-22T09:57:18.301Z,1012.40
2018-04-22T09:58:18.292Z,1012.32
2018-04-22T09:59:18.292Z,1012.37
2018-04-22T10:00:18.283Z,1012.37
2018-04-22T10:01:18.278Z,1012.34
2018-04-22T10:02:18.264Z,1012.37
2018-04-22T10:03:18.257Z,1012.42
2018-04-22T10:04:18.251Z,1012.35
2018-04-22T10:05:18.241Z,1012.32
2018-04-22T10:06:18.250Z,1012.31
2018-04-22T10:07:18.232Z,1012.31
2018-04-22T10:08:18.219Z,1012.25
2018-04-22T10:09:18.216Z,1012.21
2018-04-22T10:10:18.206Z,1012.19
2018-04-22T10:11:18.198Z,1012.18
2018-04-22T10:12:18.196Z,1012.23
2018-04-22T10:13:18.184Z,1012.24
2018-04-22T10:14:18.180Z,1012.20
2018-04-22T10:15:18.172Z,1012.21
2018-04-22T10:16:18.165Z,1012.19
2018-04-22T10:17:18.157Z,1012.20
2018-04-22T10:18:18.152Z,1012.17
2018-04-22T10:19:18.152Z,1012.18
2018-04-22T10:20:18.141Z,1012.15
2018-04-22T10:21:18.130Z,1012.17
2018-04-22T10:22:18.121Z,1012.17
2018-04-22T10:23:18.117Z,1012.16
2018-04-22T10:24:18.115Z,1012.20
2018-04-22T10:25:18.107Z,1012.16
2018-04-22T10:26:18.099Z,1012.16
2018-04-22T10:27:18.091Z,1012.16
2018-04-22T10:28:18.080Z,1012.20
2018-04-22T10:29:18.072Z,1012.18
2018-04-22T10:30:18.067Z,1012.16
2018-04-22T10:31:18.065Z,1012.18
2018-04-22T10:32:18.053Z,1012.16
2018-04-22T10:33:18.047Z,1012.12
2018-04-22T10:34:18.038Z,1012.18
2018-04-22T10:35:18.032Z,1012.18
2018-04-22T10:36:18.024Z,1012.18
2018-04-22T10:37:18.077Z,1012.13
2018-04-22T10:38:18.011Z,1012.13
2018-04-22T10:39:18.004Z,1012.08
2018-04-22T10:40:17.996Z,1012.09
2018-04-22T10:41:17.988Z,1012.04
2018-04-22T10:42:17.992Z,1012.09
2018-04-22T10:43:17.983Z,1012.02
2018-04-22T10:44:17.969Z,1012.02
2018-04-22T10:45:17.962Z,1011.98
2018-04-22T10:46:17.959Z,1011.94
2018-04-22T10:47:17.958Z,1011.95
2018-04-22T10:48:17.946Z,1011.95
2018-04-22T10:49:17.936Z,1011.96
2018-04-22T10:50:17.934Z,1011.97
2018-04-22T10:51:17.922Z,1011.89
2018-04-22T10:52:17.913Z,1011.83
2018-04-22T10:53:17.908Z,1011.84
2018-04-22T10:54:17.907Z,1011.82
2018-04-22T10:55:17.973Z,1011.85
2018-04-22T10:56:17.889Z,1011.84
2018-04-22T10:57:17.881Z,1011.79
2018-04-22T10:58:17.875Z,1011.80
2018-04-22T10:59:17.869Z,1011.78
2018-04-22T11:00:17.863Z,1011.78
2018-04-22T11:01:17.854Z,1011.76
2018-04-22T11:02:17.858Z,1011.75
2018-04-22T11:03:17.851Z,1011.77
2018-04-22T11:04:17.835Z,1011.75
2018-04-22T11:05:17.838Z,1011.75
2018-04-22T11:06:17.824Z,1011.76
2018-04-22T11:07:17.921Z,1011.84
2018-04-22T11:08:17.811Z,1011.77
2018-04-22T11:09:17.804Z,1011.80
2018-04-22T11:10:17.802Z,1011.80
2018-04-22T11:11:17.793Z,1011.79
2018-04-22T11:12:17.784Z,1011.78
2018-04-22T11:13:17.777Z,1011.75
2018-04-22T11:14:17.803Z,1011.76
2018-04-22T11:15:17.766Z,1011.75
2018-04-22T11:16:17.758Z,1011.70
2018-04-22T11:17:17.755Z,1011.72
2018-04-22T11:18:17.745Z,1011.77
2018-04-22T11:19:17.741Z,1011.77
2018-04-22T11:20:17.735Z,1011.77
2018-04-22T11:21:17.729Z,1011.77
2018-04-22T11:22:17.726Z,1011.72
2018-04-22T11:23:17.717Z,1011.71
2018-04-22T11:24:17.708Z,1011.69
2018-04-22T11:25:17.703Z,1011.64
2018-04-22T11:26:17.701Z,1011.61
2018-04-22T11:27:17.695Z,1011.59
2018-04-22T11:28:17.684Z,1011.59
2018-04-22T11:29:17.688Z,1011.61
2018-04-22T11:30:17.673Z,1011.65
2018-04-22T11:31:17.665Z,1011.66
2018-04-22T11:32:17.663Z,1011.67
2018-04-22T11:33:17.656Z,1011.65
2018-04-22T11:34:17.651Z,1011.64
2018-04-22T11:35:17.643Z,1011.58
2018-04-22T11:36:17.636Z,1011.56
2018-04-22T11:37:17.633Z,1011.58
2018-04-22T11:38:17.627Z,1011.61
2018-04-22T11:39:17.624Z,1011.59
2018-04-22T11:40:17.615Z,1011.54
2018-04-22T11:41:17.608Z,1011.66
2018-04-22T11:42:17.605Z,1011.58
2018-04-22T11:43:17.602Z,1011.61
2018-04-22T11:44:17.592Z,1011.62
2018-04-22T11:45:17.585Z,1011.60
2018-04-22T11:46:17.580Z,1011.59
2018-04-22T11:47:17.577Z,1011.57
2018-04-22T11:48:17.568Z,1011.58
2018-04-22T11:49:17.565Z,1011.57
2018-04-22T11:50:17.562Z,1011.47
2018-04-22T11:51:17.552Z,1011.49
2018-04-22T11:52:17.599Z,1011.48
2018-04-22T11:53:17.546Z,1011.48
2018-04-22T11:54:17.538Z,1011.49
2018-04-22T11:55:17.534Z,1011.49
2018-04-22T11:56:17.525Z,1011.52
2018-04-22T11:57:17.523Z,1011.44
2018-04-22T11:58:17.518Z,1011.45
2018-04-22T11:59:17.510Z,1011.41
2018-04-22T12:00:17.510Z,1011.43
2018-04-22T12:01:17.502Z,1011.42
2018-04-22T12:02:17.497Z,1011.43
2018-04-22T12:03:17.495Z,1011.44
2018-04-22T12:04:17.490Z,1011.42
2018-04-22T12:05:17.480Z,1011.41